• Join FlightAware (Why Join?)
  • Login
  • US Flag 
02:03PM EDT


 

Airport Tracker/Info


-or-


 

Live Flight TrackerFlight Track Log ✈ SWA1435 ✈ 24-Apr-2013 ✈ KSTL - KOMA

Flight Track Log - Related Links

Times and Time Zones

All times are in EDT time to prevent confusion due to time zone crossing. See the SWA1435 flight status page for this flight to view local times or setup timezone preferences in your user account.

Time Position Orientation Groundspeed Altitude Reporting Facility
EDT Latitude Longitude Course Direction KTS MPH feet Rate Location/Type
09:26AM 38.7592 -90.3433 303° West 155 178 2,400  Level FAA TRACON SMA TRACON (SMA)
09:27AM 38.7697 -90.3653 302° West 184 212 3,600 3,300 Climbing FAA TRACON SMA TRACON (SMA)
09:27AM 38.7783 -90.3836 301° West 195 224 4,600 2,400 Climbing FAA TRACON SMA TRACON (SMA)
09:27AM 38.7917 -90.4094 304° West 219 252 5,200 2,520 Climbing FAA TRACON SMA TRACON (SMA)
09:28AM 38.8033 -90.4322 303° West 244 281 6,300 3,480 Climbing FAA TRACON SMA TRACON (SMA)
09:28AM 38.8153 -90.4550 304° West 251 289 7,500 3,900 Climbing FAA TRACON SMA TRACON (SMA)
09:28AM 38.8294 -90.4839 302° West 251 289 8,900 3,600 Climbing FAA TRACON SMA TRACON (SMA)
09:29AM 38.8414 -90.5069 304° West 252 290 10,000 2,760 Climbing FAA TRACON SMA TRACON (SMA)
09:29AM 38.8536 -90.5311 303° West 258 297 10,700 1,380 Climbing FAA TRACON SMA TRACON (SMA)
09:29AM 38.8661 -90.5575 301° West 275 316 10,900 1,380 Climbing FAA TRACON SMA TRACON (SMA)
09:30AM 38.8853 -90.5925 305° West 308 354 11,700 2,460 Climbing FAA TRACON SMA TRACON (SMA)
09:30AM 38.9000 -90.6225 302° West 322 371 12,600 3,060 Climbing FAA TRACON SMA TRACON (SMA)
09:30AM 38.9189 -90.6608 302° West 328 377 13,700 3,300 Climbing FAA TRACON SMA TRACON (SMA)
09:31AM 38.9350 -90.6900 305° West 327 376 14,800 3,180 Climbing FAA TRACON SMA TRACON (SMA)
09:31AM 38.9492 -90.7208 301° West 326 375 15,800 3,060 Climbing FAA TRACON SMA TRACON (SMA)
09:31AM 38.9647 -90.7500 304° West 324 373 16,800 2,580 Climbing FAA TRACON SMA TRACON (SMA)
09:32AM 38.9836 -90.7875 303° West 325 374 17,600 1,740 Climbing FAA TRACON SMA TRACON (SMA)
09:32AM 38.9989 -90.8194 302° West 334 384 18,000 1,680 Climbing FAA TRACON SMA TRACON (SMA)
09:32AM 39.0147 -90.8511 303° West 342 394 18,700 2,280 Climbing FAA TRACON SMA TRACON (SMA)
09:33AM 39.0353 -90.8911 303° West 348 400 19,500 2,100 Climbing FAA TRACON SMA TRACON (SMA)
09:33AM 39.0514 -90.9242 302° West 353 406 20,200 2,160 Climbing FAA TRACON SMA TRACON (SMA)
09:33AM 39.0731 -90.9644 305° West 356 410 21,000 2,280 Climbing FAA TRACON SMA TRACON (SMA)
09:34AM 39.0894 -90.9981 302° West 359 413 21,700 2,100 Climbing FAA TRACON SMA TRACON (SMA)
09:34AM 39.1075 -91.0300 306° West 360 414 22,400 1,620 Climbing FAA TRACON SMA TRACON (SMA)
09:34AM 39.1203 -91.0667 294° West 362 417 22,800 900 Climbing FAA TRACON SMA TRACON (SMA)
09:35AM 39.1406 -91.1108 301° West 371 427 23,000 300 Climbing FAA TRACON SMA TRACON (SMA)
09:35AM 39.1558 -91.1483 298° West 380 437 23,000  Level FAA TRACON SMA TRACON (SMA)
09:35AM 39.1717 -91.1853 299° West 383 441 23,000  Level FAA TRACON SMA TRACON (SMA)
09:36AM 39.1906 -91.2314 298° West 380 437 23,000 900 Level FAA TRACON SMA TRACON (SMA)
09:36AM 39.2058 -91.2683 298° West 379 436 23,600 2,220 Climbing FAA TRACON SMA TRACON (SMA)
09:36AM 39.2233 -91.3136 297° West 373 429 24,500 1,860 Climbing FAA TRACON SMA TRACON (SMA)
09:37AM 39.2394 -91.3497 300° West 373 429 24,900 1,200 Climbing FAA TRACON SMA TRACON (SMA)
09:37AM 39.2544 -91.3875 297° West 380 437 25,300 1,200 Climbing FAA TRACON SMA TRACON (SMA)
09:37AM 39.2694 -91.4253 297° West 385 443 25,700 1,500 Climbing FAA TRACON SMA TRACON (SMA)
09:38AM 39.3067 -91.5833 287° West 381 438 27,300 1,920 Climbing Kansas City Center
09:39AM 39.3639 -91.7303 297° West 383 441 29,700 1,860 Climbing Kansas City Center
09:40AM 39.4100 -91.8500 297° West 379 436 31,200 1,380 Climbing Kansas City Center
09:41AM 39.4569 -91.9703 297° West 376 433 32,600 1,320 Climbing Kansas City Center
09:43AM 39.5028 -92.0914 296° West 378 435 34,000 660 Climbing Kansas City Center
09:44AM 39.5500 -92.2114 297° West 377 434 34,000  Level Kansas City Center
09:45AM 39.6056 -92.3544 297° West 373 429 34,000  Level Kansas City Center
09:46AM 39.6514 -92.4736 297° West 371 427 34,000  Level Kansas City Center
09:47AM 39.7178 -92.5814 309° West 382 440 34,000  Level Kansas City Center
09:48AM 39.7869 -92.6844 311° West 382 440 34,000  Level Kansas City Center
09:49AM 39.8553 -92.7922 310° West 386 444 34,000  Level Kansas City Center
09:50AM 39.9242 -92.8992 310° West 384 442 34,000  Level Kansas City Center
09:51AM 39.9928 -93.0078 310° West 386 444 34,000  Level Kansas City Center
09:52AM 40.0744 -93.1356 310° West 385 443 34,000  Level Kansas City Center
09:53AM 40.1428 -93.2439 310° West 383 441 34,000  Level Kansas City Center
09:54AM 40.2108 -93.3528 309° West 386 444 34,000  Level Kansas City Center
09:55AM 40.2800 -93.4606 310° West 388 447 34,000  Level Kansas City Center
09:56AM 40.3475 -93.5692 309° West 386 444 34,000  Level Kansas City Center
09:57AM 40.4147 -93.6767 309° West 385 443 34,000  Level Minneapolis Center
09:58AM 40.4811 -93.7847 309° West 383 441 34,000 -120 Level Minneapolis Center
09:59AM 40.5622 -93.9156 309° West 386 444 33,800 -600 Descending Minneapolis Center
10:00AM 40.6058 -94.0358 296° West 372 428 32,800 -1,020 Descending Minneapolis Center
10:01AM 40.6272 -94.1658 282° West 366 421 31,800 -1,140 Descending Minneapolis Center
10:02AM 40.6478 -94.2933 282° West 359 413 30,500 -1,740 Descending Minneapolis Center
10:03AM 40.6678 -94.4158 282° West 349 402 28,300 -2,160 Descending Minneapolis Center
10:04AM 40.6878 -94.5331 283° West 335 386 26,100 -2,220 Descending Minneapolis Center
10:06AM 40.7283 -94.7822 282° West 321 369 21,600 -2,100 Descending Minneapolis Center
10:07AM 40.7494 -94.9142 282° West 309 356 19,200 -1,980 Descending Minneapolis Center
10:08AM 40.7669 -95.0256 282° West 307 353 17,200 -1,560 Descending Minneapolis Center
10:10AM 40.8239 -95.1386 304° West 272 313 15,900 -1,560 Descending Minneapolis Center
10:11AM 40.8467 -95.1981 297° West 277 319 14,000 -2,340 Descending Minneapolis Center
10:12AM 40.8950 -95.2797 308° West 275 316 11,500 -2,040 Descending Minneapolis Center
10:13AM 40.9553 -95.3794 309° West 283 326 9,900 -1,680 Descending Minneapolis Center
10:14AM 40.9997 -95.4542 308° West 274 315 8,000 -1,800 Descending Minneapolis Center
10:15AM 41.0425 -95.5261 308° West 260 299 6,200 -1,560 Descending Minneapolis Center
10:16AM 41.0856 -95.6000 308° West 255 293 4,900 -1,320 Descending Minneapolis Center
10:17AM 41.1181 -95.6542 309° West 249 287 3,500 -960 Descending Minneapolis Center
10:18AM 41.1769 -95.7531 308° West 197 227 2,900 -300 Descending Minneapolis Center
10:19AM 41.2067 -95.7972 312° West 206 237 3,000 -360 Climbing Minneapolis Center
10:20AM 41.2414 -95.8386 318° Northwest 184 212 2,200 -780 Descending Minneapolis Center
10:21AM 41.2744 -95.8686 326° Northwest 165 190 1,500 -600 Descending Minneapolis Center
10:22AM 41.3072 -95.9011 323° Northwest 151 174 1,000 -540 Descending Minneapolis Center
10:24AM 41.3032 -95.8941 90° East  Level Estimated